Time;durP1;ratioP1;P1;durP2;ratioP2;P2;SDS_P1;SDS_P2;PMS_P1;PMS_P2;Temp;Humidity;BMP_temperature;BMP_pressure;BME280_temperature;BME280_humidity;BME280_pressure;Samples;Min_cycle;Max_cycle;Signal;HPM_P1;HPM_P2
2023/09/16 00:01:36;;;;;;;;;;;23.90;78.40;;;;;;5091651;28;20320;-65
2023/09/16 00:04:03;;;;;;;;;;;24.10;77.30;;;;;;5093802;28;19967;-71
2023/09/16 00:06:29;;;;;;;;;;;24.20;76.70;;;;;;5083315;28;19913;-66
2023/09/16 00:08:56;;;;;;;;;;;24.40;75.50;;;;;;5087245;28;19913;-67
2023/09/16 00:11:23;;;;;;;;;;;24.50;74.90;;;;;;5091517;28;19916;-67
2023/09/16 00:13:50;;;;;;;;;;;24.50;74.70;;;;;;5085501;28;19908;-67
2023/09/16 00:16:16;;;;;;;;;;;24.70;74.60;;;;;;5082804;28;19961;-68
2023/09/16 00:18:43;;;;;;;;;;;24.90;74.60;;;;;;5090670;28;19909;-66
2023/09/16 00:21:10;;;;;;;;;;;25.10;73.60;;;;;;5093852;28;19912;-66
2023/09/16 00:23:38;;;;;;;;;;;25.20;73.10;;;;;;5094191;28;20339;-66
2023/09/16 00:26:04;;;;;;;;;;;25.20;72.10;;;;;;5092448;28;19916;-74
2023/09/16 00:28:32;;;;;;;;;;;25.40;72.20;;;;;;5091649;28;19912;-66
2023/09/16 00:31:01;;;;;;;;;;;25.70;71.90;;;;;;5079290;28;19966;-66
2023/09/16 00:33:29;;;;;;;;;;;25.70;71.20;;;;;;5072981;28;20007;-66
2023/09/16 00:35:56;;;;;;;;;;;25.80;71.00;;;;;;5086382;28;19928;-70
2023/09/16 00:38:23;;;;;;;;;;;25.90;70.80;;;;;;5092126;28;20002;-67
2023/09/16 00:40:50;;;;;;;;;;;26.00;70.60;;;;;;5085950;28;20631;-68
2023/09/16 00:43:16;;;;;;;;;;;26.10;70.40;;;;;;5090380;28;20020;-66
2023/09/16 00:45:43;;;;;;;;;;;26.30;70.50;;;;;;5089488;28;19912;-66
2023/09/16 00:48:12;;;;;;;;;;;26.40;69.50;;;;;;5076582;28;20428;-65
2023/09/16 00:50:41;;;;;;;;;;;26.60;67.80;;;;;;5082341;28;19912;-68
2023/09/16 00:53:09;;;;;;;;;;;26.80;66.40;;;;;;5087641;28;19916;-66
2023/09/16 00:55:36;;;;;;;;;;;27.00;66.20;;;;;;5090571;28;19920;-68
2023/09/16 00:58:11;;;;;;;;;;;27.10;66.60;;;;;;5090445;28;21371;-76
2023/09/16 01:00:37;;;;;;;;;;;27.30;66.00;;;;;;5088471;28;19957;-69
2023/09/16 01:03:05;;;;;;;;;;;27.50;64.60;;;;;;5091469;28;19908;-67
2023/09/16 01:05:33;;;;;;;;;;;27.70;64.30;;;;;;5085594;28;19991;-71
2023/09/16 01:08:00;;;;;;;;;;;27.90;64.00;;;;;;5084286;28;19965;-68
2023/09/16 01:10:26;;;;;;;;;;;28.10;62.80;;;;;;5089902;28;19937;-67
2023/09/16 01:12:54;;;;;;;;;;;28.40;62.40;;;;;;5084364;28;19916;-67
2023/09/16 01:15:22;;;;;;;;;;;28.40;61.30;;;;;;5084244;28;19921;-67
2023/09/16 01:18:00;;;;;;;;;;;28.50;61.20;;;;;;5092895;28;19908;-67
2023/09/16 01:20:28;;;;;;;;;;;28.80;60.90;;;;;;5090465;28;19921;-67
2023/09/16 01:22:54;;;;;;;;;;;28.90;60.20;;;;;;5090271;28;19919;-68
2023/09/16 01:25:24;;;;;;;;;;;29.10;61.30;;;;;;5083264;28;19916;-67
2023/09/16 01:27:51;;;;;;;;;;;29.30;60.30;;;;;;5082767;28;20257;-68
2023/09/16 01:30:18;;;;;;;;;;;29.50;59.80;;;;;;5087835;28;19912;-66
2023/09/16 01:32:53;;;;;;;;;;;29.70;60.00;;;;;;5092272;28;19908;-68
2023/09/16 01:35:21;;;;;;;;;;;29.90;59.80;;;;;;5093315;28;20288;-68
2023/09/16 01:37:50;;;;;;;;;;;30.10;57.90;;;;;;5093209;28;20361;-65
2023/09/16 01:40:17;;;;;;;;;;;30.20;57.70;;;;;;5092928;28;20288;-68
2023/09/16 01:42:45;;;;;;;;;;;30.40;56.60;;;;;;5093025;28;19908;-70
2023/09/16 01:45:12;;;;;;;;;;;30.70;55.80;;;;;;5093216;28;19908;-67
2023/09/16 01:47:39;;;;;;;;;;;30.70;54.80;;;;;;5092059;28;19927;-66
2023/09/16 01:50:06;;;;;;;;;;;31.00;56.50;;;;;;5083148;28;19912;-69
2023/09/16 01:52:32;;;;;;;;;;;31.30;55.30;;;;;;5092785;28;19938;-67
2023/09/16 01:54:59;;;;;;;;;;;31.40;55.30;;;;;;5091819;28;19966;-67
2023/09/16 01:57:26;;;;;;;;;;;31.30;53.60;;;;;;5092224;28;20421;-66
2023/09/16 01:59:53;;;;;;;;;;;31.40;54.30;;;;;;5092511;28;19912;-67
2023/09/16 02:02:20;;;;;;;;;;;31.60;52.70;;;;;;5092918;28;19959;-66
2023/09/16 02:04:46;;;;;;;;;;;31.90;54.70;;;;;;5092452;28;20018;-67
2023/09/16 02:07:13;;;;;;;;;;;32.10;53.10;;;;;;5092612;28;20375;-71
2023/09/16 02:09:41;;;;;;;;;;;32.10;53.10;;;;;;5092344;28;19916;-66
2023/09/16 02:12:08;;;;;;;;;;;32.20;51.20;;;;;;5092653;28;20006;-67
2023/09/16 02:14:38;;;;;;;;;;;32.10;51.30;;;;;;5089353;28;19912;-70
2023/09/16 02:17:07;;;;;;;;;;;32.20;52.30;;;;;;5092185;28;20045;-69
2023/09/16 02:19:34;;;;;;;;;;;32.30;51.10;;;;;;5091849;28;19996;-67
2023/09/16 02:22:00;;;;;;;;;;;32.40;50.60;;;;;;5090118;28;20353;-68
2023/09/16 02:24:27;;;;;;;;;;;32.50;50.60;;;;;;5084787;28;19958;-70
2023/09/16 02:26:54;;;;;;;;;;;32.70;54.50;;;;;;5071734;28;20388;-68
2023/09/16 02:29:20;;;;;;;;;;;32.90;50.10;;;;;;5075674;28;19912;-69
2023/09/16 02:31:48;;;;;;;;;;;33.20;50.30;;;;;;5092394;28;19954;-68
2023/09/16 02:34:14;;;;;;;;;;;33.40;50.20;;;;;;5092132;28;19973;-68
2023/09/16 02:36:41;;;;;;;;;;;33.60;49.90;;;;;;5092356;28;19912;-68
2023/09/16 02:39:07;;;;;;;;;;;33.80;49.30;;;;;;5091635;28;19958;-67
2023/09/16 02:41:34;;;;;;;;;;;34.20;51.40;;;;;;5092411;28;19912;-66
2023/09/16 02:44:01;;;;;;;;;;;35.00;48.20;;;;;;5092176;28;19911;-69
2023/09/16 02:46:28;;;;;;;;;;;35.70;47.70;;;;;;5092254;28;19974;-67
2023/09/16 02:48:54;;;;;;;;;;;36.80;47.40;;;;;;5092001;28;19920;-69
2023/09/16 02:51:21;;;;;;;;;;;37.70;47.00;;;;;;5091804;28;19908;-71
2023/09/16 02:53:47;;;;;;;;;;;38.80;47.70;;;;;;5086793;28;19908;-70
2023/09/16 02:56:14;;;;;;;;;;;39.70;45.40;;;;;;5092223;28;20023;-67
2023/09/16 02:58:40;;;;;;;;;;;39.90;44.50;;;;;;5092092;28;19952;-68
2023/09/16 03:01:11;;;;;;;;;;;40.20;44.50;;;;;;5091701;28;19991;-69
2023/09/16 03:03:38;;;;;;;;;;;41.30;45.70;;;;;;5090344;28;19932;-68
2023/09/16 03:06:04;;;;;;;;;;;42.20;43.80;;;;;;5093427;28;20544;-68
2023/09/16 03:08:31;;;;;;;;;;;42.70;43.20;;;;;;5096062;28;20003;-68
2023/09/16 03:11:02;;;;;;;;;;;42.80;42.70;;;;;;5095486;28;20412;-68
2023/09/16 03:13:29;;;;;;;;;;;42.70;42.10;;;;;;5095829;28;19908;-68
2023/09/16 03:16:15;;;;;;;;;;;43.00;43.90;;;;;;5095843;28;19937;-68
2023/09/16 03:18:48;;;;;;;;;;;43.60;41.50;;;;;;5095546;28;19991;-72
2023/09/16 03:21:15;;;;;;;;;;;43.60;42.20;;;;;;5095386;28;19908;-70
2023/09/16 03:23:43;;;;;;;;;;;43.80;43.00;;;;;;5087425;28;19915;-69
2023/09/16 03:26:10;;;;;;;;;;;44.70;42.80;;;;;;5076177;28;19913;-70
2023/09/16 03:28:44;;;;;;;;;;;44.30;41.80;;;;;;5088868;28;19912;-66
2023/09/16 03:31:11;;;;;;;;;;;44.10;41.10;;;;;;5092582;28;19912;-67
2023/09/16 03:33:38;;;;;;;;;;;43.60;40.80;;;;;;5095186;28;19912;-69
2023/09/16 03:36:05;;;;;;;;;;;44.00;41.20;;;;;;5095221;28;19928;-67
2023/09/16 03:38:33;;;;;;;;;;;43.80;41.00;;;;;;5095190;28;20331;-70
2023/09/16 03:41:00;;;;;;;;;;;43.70;41.20;;;;;;5092813;28;19916;-67
2023/09/16 03:43:27;;;;;;;;;;;43.90;40.70;;;;;;5075813;28;19982;-68
2023/09/16 03:45:54;;;;;;;;;;;44.10;41.40;;;;;;5075021;28;19908;-68
2023/09/16 03:48:21;;;;;;;;;;;44.50;40.50;;;;;;5092475;28;20019;-69
2023/09/16 03:50:48;;;;;;;;;;;45.30;39.60;;;;;;5095427;28;19961;-70
2023/09/16 03:53:15;;;;;;;;;;;45.20;39.40;;;;;;5094069;28;19912;-70
2023/09/16 03:55:41;;;;;;;;;;;45.40;40.30;;;;;;5092682;28;19969;-68
2023/09/16 03:58:08;;;;;;;;;;;46.30;40.80;;;;;;5093373;28;20436;-70
2023/09/16 04:00:34;;;;;;;;;;;46.00;39.30;;;;;;5093705;28;19908;-73
2023/09/16 04:03:01;;;;;;;;;;;46.00;39.30;;;;;;5094252;28;20292;-69
2023/09/16 04:05:28;;;;;;;;;;;46.40;39.50;;;;;;5094465;28;19908;-76
2023/09/16 04:07:54;;;;;;;;;;;46.50;40.20;;;;;;5090691;28;19919;-70
2023/09/16 04:10:21;;;;;;;;;;;46.10;39.50;;;;;;5092450;28;19912;-68
2023/09/16 04:12:48;;;;;;;;;;;46.00;38.60;;;;;;5093140;28;20337;-68
2023/09/16 04:15:15;;;;;;;;;;;46.10;38.90;;;;;;5093018;28;19916;-73
2023/09/16 04:17:42;;;;;;;;;;;46.20;36.80;;;;;;5092011;28;19908;-71
2023/09/16 04:20:09;;;;;;;;;;;46.00;37.50;;;;;;5092826;28;19908;-69
2023/09/16 04:22:36;;;;;;;;;;;46.10;38.10;;;;;;5093368;28;19908;-73
2023/09/16 04:25:03;;;;;;;;;;;45.00;38.70;;;;;;5095005;28;19908;-69
2023/09/16 04:27:29;;;;;;;;;;;45.10;39.10;;;;;;5094767;28;19908;-69
2023/09/16 04:29:56;;;;;;;;;;;45.30;38.60;;;;;;5094499;28;20008;-68
2023/09/16 04:32:23;;;;;;;;;;;45.30;36.90;;;;;;5094426;28;19986;-69
2023/09/16 04:34:49;;;;;;;;;;;44.80;36.90;;;;;;5093750;28;19916;-69
2023/09/16 04:37:16;;;;;;;;;;;44.20;36.80;;;;;;5094593;28;19908;-69
2023/09/16 04:39:43;;;;;;;;;;;43.20;37.50;;;;;;5094610;28;20377;-69
2023/09/16 04:42:09;;;;;;;;;;;43.30;37.40;;;;;;5094609;28;19962;-70
2023/09/16 04:44:38;;;;;;;;;;;43.60;37.10;;;;;;5094411;28;19947;-70
2023/09/16 04:47:07;;;;;;;;;;;43.60;37.10;;;;;;5094295;28;20013;-70
2023/09/16 04:49:34;;;;;;;;;;;43.70;37.00;;;;;;5092283;28;19919;-72
2023/09/16 04:52:00;;;;;;;;;;;43.30;37.40;;;;;;5091932;28;19912;-70
2023/09/16 04:54:28;;;;;;;;;;;43.20;37.40;;;;;;5094239;28;19960;-71
2023/09/16 04:56:56;;;;;;;;;;;43.20;36.80;;;;;;5083400;28;19916;-71
2023/09/16 04:59:23;;;;;;;;;;;43.00;37.70;;;;;;5077929;28;19974;-71
2023/09/16 05:01:51;;;;;;;;;;;42.80;38.10;;;;;;5081773;28;20365;-72
2023/09/16 05:04:18;;;;;;;;;;;43.60;37.10;;;;;;5090458;28;19998;-72
2023/09/16 05:06:44;;;;;;;;;;;43.90;36.80;;;;;;5088831;28;19961;-70
2023/09/16 05:09:11;;;;;;;;;;;43.70;37.30;;;;;;5085175;28;19962;-70
2023/09/16 05:11:37;;;;;;;;;;;44.10;37.40;;;;;;5093782;28;20368;-70
2023/09/16 05:14:04;;;;;;;;;;;44.40;37.60;;;;;;5093267;28;19912;-71
2023/09/16 05:16:31;;;;;;;;;;;44.40;37.50;;;;;;5093197;28;19969;-70
2023/09/16 05:18:57;;;;;;;;;;;44.30;38.20;;;;;;5092703;28;19912;-71
2023/09/16 05:21:24;;;;;;;;;;;44.70;37.30;;;;;;5093219;28;20015;-71
2023/09/16 05:23:54;;;;;;;;;;;44.50;36.80;;;;;;5093468;28;20479;-69
2023/09/16 05:26:20;;;;;;;;;;;43.70;38.00;;;;;;5093169;28;19908;-73
2023/09/16 05:28:47;;;;;;;;;;;44.20;37.80;;;;;;5092685;28;19934;-69
2023/09/16 05:31:14;;;;;;;;;;;44.20;37.60;;;;;;5093021;28;20439;-69
2023/09/16 05:33:40;;;;;;;;;;;44.50;37.40;;;;;;5093193;28;20258;-71
2023/09/16 05:36:07;;;;;;;;;;;44.90;37.40;;;;;;5092885;28;19916;-70
2023/09/16 05:38:33;;;;;;;;;;;45.20;37.60;;;;;;5092537;28;19908;-70
2023/09/16 05:41:00;;;;;;;;;;;45.50;37.00;;;;;;5091303;28;20269;-70
2023/09/16 05:43:27;;;;;;;;;;;45.70;37.50;;;;;;5092320;28;19946;-69
2023/09/16 05:45:54;;;;;;;;;;;45.30;37.50;;;;;;5084936;28;20311;-69
2023/09/16 05:48:20;;;;;;;;;;;45.00;37.10;;;;;;5092692;28;19920;-70
2023/09/16 05:50:56;;;;;;;;;;;45.00;37.20;;;;;;5092510;28;20866;-72
2023/09/16 05:53:22;;;;;;;;;;;45.20;38.10;;;;;;5092978;28;19908;-72
2023/09/16 05:55:49;;;;;;;;;;;45.50;37.40;;;;;;5092809;28;19916;-70
2023/09/16 05:58:16;;;;;;;;;;;45.70;37.40;;;;;;5091553;28;19909;-70
2023/09/16 06:00:42;;;;;;;;;;;45.00;37.40;;;;;;5082791;28;19908;-70
2023/09/16 06:03:09;;;;;;;;;;;44.30;37.50;;;;;;5087189;28;19966;-70
2023/09/16 06:05:35;;;;;;;;;;;44.30;37.90;;;;;;5090092;28;19913;-70
2023/09/16 06:08:02;;;;;;;;;;;44.30;37.80;;;;;;5086594;28;19951;-72
2023/09/16 06:10:29;;;;;;;;;;;44.50;38.60;;;;;;5092274;28;19976;-69
2023/09/16 06:12:55;;;;;;;;;;;44.60;38.50;;;;;;5092295;28;19912;-70
2023/09/16 06:15:23;;;;;;;;;;;44.80;38.50;;;;;;5092502;28;19916;-70
2023/09/16 06:17:49;;;;;;;;;;;43.80;37.30;;;;;;5092514;28;19908;-70
2023/09/16 06:20:16;;;;;;;;;;;43.60;37.60;;;;;;5092207;28;19912;-69
2023/09/16 06:22:42;;;;;;;;;;;43.20;37.80;;;;;;5092468;28;19908;-69
2023/09/16 06:25:09;;;;;;;;;;;43.10;38.40;;;;;;5092058;28;19908;-70
2023/09/16 06:27:36;;;;;;;;;;;43.50;37.40;;;;;;5092436;28;19908;-71
2023/09/16 06:30:03;;;;;;;;;;;43.20;38.20;;;;;;5088153;28;19924;-71
2023/09/16 06:32:29;;;;;;;;;;;43.00;37.90;;;;;;5092170;28;19995;-71
2023/09/16 06:34:56;;;;;;;;;;;42.90;38.00;;;;;;5092246;28;20324;-71
2023/09/16 06:37:22;;;;;;;;;;;42.90;38.70;;;;;;5091740;28;19914;-72
2023/09/16 06:39:49;;;;;;;;;;;43.10;38.10;;;;;;5090233;28;20288;-71
2023/09/16 06:42:16;;;;;;;;;;;42.90;38.20;;;;;;5095940;28;19927;-70
2023/09/16 06:44:42;;;;;;;;;;;42.40;38.40;;;;;;5096400;28;19908;-70
2023/09/16 06:47:09;;;;;;;;;;;41.40;38.20;;;;;;5096438;28;20292;-70
2023/09/16 06:49:35;;;;;;;;;;;40.20;39.20;;;;;;5096024;28;20006;-68
2023/09/16 06:52:02;;;;;;;;;;;38.90;38.80;;;;;;5089944;28;20311;-69
2023/09/16 06:54:29;;;;;;;;;;;37.80;39.50;;;;;;5095302;28;19916;-71
2023/09/16 06:56:56;;;;;;;;;;;36.50;39.80;;;;;;5094944;28;19919;-71
2023/09/16 06:59:23;;;;;;;;;;;35.50;40.40;;;;;;5095691;28;20002;-70
2023/09/16 07:01:50;;;;;;;;;;;34.80;40.80;;;;;;5096144;28;20357;-70
2023/09/16 07:04:17;;;;;;;;;;;34.20;40.90;;;;;;5096139;28;19933;-69
2023/09/16 07:06:44;;;;;;;;;;;33.60;41.70;;;;;;5096055;28;19917;-71
2023/09/16 07:09:12;;;;;;;;;;;33.10;41.50;;;;;;5095516;28;19908;-70
2023/09/16 07:11:39;;;;;;;;;;;32.80;41.90;;;;;;5095528;28;19912;-70
2023/09/16 07:14:05;;;;;;;;;;;32.60;42.20;;;;;;5092691;28;19912;-70
2023/09/16 07:16:40;;;;;;;;;;;32.30;42.40;;;;;;5094150;28;19989;-71
2023/09/16 07:19:08;;;;;;;;;;;32.00;42.40;;;;;;5093141;28;20550;-71
2023/09/16 07:21:34;;;;;;;;;;;31.80;42.90;;;;;;5093612;28;19908;-71
2023/09/16 07:24:01;;;;;;;;;;;31.60;42.80;;;;;;5093736;28;19912;-71
2023/09/16 07:26:28;;;;;;;;;;;31.40;43.10;;;;;;5093857;28;19915;-71
2023/09/16 07:28:55;;;;;;;;;;;31.30;43.70;;;;;;5094779;28;19916;-70
2023/09/16 07:31:22;;;;;;;;;;;31.10;43.80;;;;;;5093444;28;19912;-71
2023/09/16 07:33:48;;;;;;;;;;;31.00;43.70;;;;;;5092763;28;19912;-72
2023/09/16 07:36:15;;;;;;;;;;;30.90;43.80;;;;;;5095202;28;19912;-70
2023/09/16 07:38:42;;;;;;;;;;;30.70;44.00;;;;;;5094940;28;19908;-72
2023/09/16 07:41:09;;;;;;;;;;;30.60;43.90;;;;;;5094747;28;19908;-70
2023/09/16 07:43:36;;;;;;;;;;;30.40;44.30;;;;;;5095056;28;20356;-69
2023/09/16 07:46:02;;;;;;;;;;;30.30;44.60;;;;;;5095576;28;19911;-69
2023/09/16 07:48:29;;;;;;;;;;;30.20;44.40;;;;;;5088814;28;20035;-71
2023/09/16 07:50:55;;;;;;;;;;;30.10;45.00;;;;;;5089883;28;19972;-74
2023/09/16 07:53:22;;;;;;;;;;;30.00;44.90;;;;;;5090718;28;19942;-71
2023/09/16 07:55:49;;;;;;;;;;;29.90;45.20;;;;;;5091357;28;19923;-72
2023/09/16 07:58:15;;;;;;;;;;;29.80;45.00;;;;;;5091936;28;19912;-68
2023/09/16 08:00:42;;;;;;;;;;;29.70;46.00;;;;;;5090531;28;19912;-69
2023/09/16 08:03:08;;;;;;;;;;;29.60;45.40;;;;;;5087878;28;19920;-71
2023/09/16 08:05:35;;;;;;;;;;;29.50;45.60;;;;;;5089807;28;20379;-71
2023/09/16 08:08:02;;;;;;;;;;;29.40;45.60;;;;;;5090546;28;19927;-70
2023/09/16 08:10:29;;;;;;;;;;;29.30;45.30;;;;;;5093978;28;19908;-70
2023/09/16 08:12:55;;;;;;;;;;;29.30;45.40;;;;;;5076602;28;19916;-69
2023/09/16 08:15:23;;;;;;;;;;;29.20;45.70;;;;;;5074222;28;20258;-69
2023/09/16 08:17:50;;;;;;;;;;;29.20;45.30;;;;;;5074167;28;20349;-71
2023/09/16 08:20:20;;;;;;;;;;;29.10;45.40;;;;;;5086342;28;19953;-69
2023/09/16 08:22:47;;;;;;;;;;;29.10;45.60;;;;;;5094201;28;19909;-70
2023/09/16 08:25:14;;;;;;;;;;;29.00;45.80;;;;;;5094441;28;20003;-68
2023/09/16 08:27:40;;;;;;;;;;;28.90;45.60;;;;;;5094636;28;19914;-69
2023/09/16 08:30:07;;;;;;;;;;;28.90;46.10;;;;;;5094154;28;19908;-69
2023/09/16 08:32:36;;;;;;;;;;;28.80;46.10;;;;;;5093536;28;19962;-70
2023/09/16 08:35:03;;;;;;;;;;;28.70;46.50;;;;;;5094277;28;19916;-72
2023/09/16 08:37:29;;;;;;;;;;;28.70;46.40;;;;;;5094400;28;19915;-70
2023/09/16 08:39:56;;;;;;;;;;;28.70;46.30;;;;;;5094113;28;19931;-69
2023/09/16 08:42:42;;;;;;;;;;;28.60;46.40;;;;;;5093865;28;19916;-70
2023/09/16 08:45:14;;;;;;;;;;;28.60;46.70;;;;;;5093499;28;19908;-69
2023/09/16 08:47:43;;;;;;;;;;;28.50;46.80;;;;;;5080465;28;19921;-69
2023/09/16 08:50:10;;;;;;;;;;;28.40;47.20;;;;;;5085753;28;19913;-71
2023/09/16 08:52:46;;;;;;;;;;;28.30;47.40;;;;;;5087912;28;20010;-71
2023/09/16 08:55:13;;;;;;;;;;;28.20;47.30;;;;;;5093884;28;20049;-68
2023/09/16 08:58:09;;;;;;;;;;;28.10;47.40;;;;;;5093840;28;19908;-69
2023/09/16 09:00:37;;;;;;;;;;;28.00;47.60;;;;;;5092446;28;19916;-72
2023/09/16 09:03:04;;;;;;;;;;;27.90;48.00;;;;;;5093447;28;20006;-70
2023/09/16 09:05:32;;;;;;;;;;;27.80;48.10;;;;;;5093619;28;20423;-70
2023/09/16 09:07:59;;;;;;;;;;;27.70;48.60;;;;;;5083156;28;20372;-69
2023/09/16 09:10:26;;;;;;;;;;;27.60;48.50;;;;;;5086426;28;19908;-70
2023/09/16 09:12:53;;;;;;;;;;;27.50;49.00;;;;;;5092880;28;19908;-70
2023/09/16 09:15:19;;;;;;;;;;;27.40;49.40;;;;;;5093509;28;19916;-70
2023/09/16 09:17:55;;;;;;;;;;;27.30;49.70;;;;;;5093255;28;19908;-71
2023/09/16 09:20:29;;;;;;;;;;;27.20;50.00;;;;;;5093512;28;19912;-70
2023/09/16 09:22:56;;;;;;;;;;;27.00;50.20;;;;;;5093323;28;20276;-71
2023/09/16 09:25:24;;;;;;;;;;;26.90;51.00;;;;;;5093233;28;20021;-68
2023/09/16 09:27:52;;;;;;;;;;;26.80;50.80;;;;;;5093366;28;19915;-69
2023/09/16 09:30:28;;;;;;;;;;;26.70;51.80;;;;;;5093210;28;20347;-69
2023/09/16 09:32:57;;;;;;;;;;;26.60;52.40;;;;;;5093271;28;20388;-68
2023/09/16 09:35:25;;;;;;;;;;;26.40;53.00;;;;;;5093247;28;20022;-68
2023/09/16 09:37:52;;;;;;;;;;;26.20;53.40;;;;;;5092664;28;19955;-69
2023/09/16 09:40:19;;;;;;;;;;;26.10;53.90;;;;;;5093162;28;19908;-70
2023/09/16 09:42:47;;;;;;;;;;;25.90;54.20;;;;;;5093133;28;19950;-68
2023/09/16 09:45:18;;;;;;;;;;;25.80;54.30;;;;;;5093052;28;19912;-70
2023/09/16 09:47:46;;;;;;;;;;;25.50;54.60;;;;;;5075278;28;19928;-68
2023/09/16 09:50:14;;;;;;;;;;;25.40;55.40;;;;;;5084133;28;20365;-68
2023/09/16 09:52:51;;;;;;;;;;;25.30;56.30;;;;;;5092529;28;20359;-68
2023/09/16 09:55:19;;;;;;;;;;;25.20;56.50;;;;;;5092943;28;19920;-69
2023/09/16 09:57:46;;;;;;;;;;;25.10;56.90;;;;;;5092989;28;19908;-71
2023/09/16 10:00:17;;;;;;;;;;;24.90;57.60;;;;;;5092848;28;19981;-70
2023/09/16 10:02:44;;;;;;;;;;;24.80;58.10;;;;;;5091462;28;19908;-69
2023/09/16 10:05:15;;;;;;;;;;;24.70;57.80;;;;;;5093143;28;20340;-69
2023/09/16 10:07:42;;;;;;;;;;;24.70;58.50;;;;;;5092706;28;19961;-68
2023/09/16 10:10:13;;;;;;;;;;;24.50;58.50;;;;;;5092296;28;19908;-70
2023/09/16 10:12:40;;;;;;;;;;;24.50;59.00;;;;;;5092031;28;20411;-69
2023/09/16 10:15:08;;;;;;;;;;;24.40;59.20;;;;;;5091630;28;19924;-70
2023/09/16 10:17:34;;;;;;;;;;;24.20;59.60;;;;;;5092478;28;19908;-69
2023/09/16 10:20:02;;;;;;;;;;;24.10;60.00;;;;;;5092474;28;19915;-68
2023/09/16 10:22:30;;;;;;;;;;;24.00;60.50;;;;;;5092415;28;19908;-69
2023/09/16 10:24:56;;;;;;;;;;;24.00;61.20;;;;;;5092430;28;19912;-69
2023/09/16 10:27:23;;;;;;;;;;;24.00;60.80;;;;;;5092540;28;20050;-69
2023/09/16 10:29:50;;;;;;;;;;;23.90;60.60;;;;;;5092181;28;19915;-71
2023/09/16 10:32:17;;;;;;;;;;;23.90;61.10;;;;;;5092347;28;19916;-70
2023/09/16 10:34:46;;;;;;;;;;;23.80;61.30;;;;;;5092348;28;19916;-68
2023/09/16 10:37:15;;;;;;;;;;;23.70;61.40;;;;;;5092699;28;19908;-70
2023/09/16 10:39:42;;;;;;;;;;;23.60;62.20;;;;;;5092260;28;19909;-69
2023/09/16 10:42:09;;;;;;;;;;;23.60;61.90;;;;;;5092241;28;19908;-70
2023/09/16 10:44:37;;;;;;;;;;;23.50;62.00;;;;;;5091892;28;19958;-69
2023/09/16 10:47:06;;;;;;;;;;;23.40;62.10;;;;;;5092212;28;19916;-68
2023/09/16 10:49:32;;;;;;;;;;;23.40;62.30;;;;;;5092057;28;19912;-68
2023/09/16 10:52:02;;;;;;;;;;;23.30;62.80;;;;;;5092449;28;19908;-69
2023/09/16 10:54:47;;;;;;;;;;;23.20;63.50;;;;;;5092196;28;20014;-69
2023/09/16 10:57:19;;;;;;;;;;;23.20;63.50;;;;;;5092409;28;19915;-68
2023/09/16 10:59:47;;;;;;;;;;;23.20;63.00;;;;;;5091894;28;19946;-71
2023/09/16 11:02:34;;;;;;;;;;;23.10;62.80;;;;;;5092345;28;19995;-69
2023/09/16 11:05:01;;;;;;;;;;;23.00;62.80;;;;;;5091399;28;19914;-69
2023/09/16 11:07:28;;;;;;;;;;;23.00;62.50;;;;;;5092101;28;19908;-67
2023/09/16 11:09:55;;;;;;;;;;;23.00;60.70;;;;;;5092069;28;20364;-68
2023/09/16 11:12:22;;;;;;;;;;;23.10;58.40;;;;;;5091845;28;19912;-68
2023/09/16 11:14:49;;;;;;;;;;;23.20;59.30;;;;;;5091806;28;19916;-68
2023/09/16 11:17:16;;;;;;;;;;;23.20;60.00;;;;;;5092172;28;19908;-68
2023/09/16 11:19:43;;;;;;;;;;;23.20;60.80;;;;;;5092008;28;20011;-68
2023/09/16 11:22:10;;;;;;;;;;;23.20;60.40;;;;;;5092366;28;19919;-70
2023/09/16 11:24:37;;;;;;;;;;;23.20;60.40;;;;;;5091780;28;19908;-69
2023/09/16 11:27:04;;;;;;;;;;;23.10;60.90;;;;;;5093993;28;19919;-70
2023/09/16 11:29:31;;;;;;;;;;;23.20;61.50;;;;;;5095701;28;19908;-70
2023/09/16 11:31:58;;;;;;;;;;;23.10;61.10;;;;;;5095414;28;19915;-68
2023/09/16 11:34:25;;;;;;;;;;;23.00;61.40;;;;;;5095368;28;20295;-68
2023/09/16 11:36:53;;;;;;;;;;;22.90;61.60;;;;;;5095697;28;20356;-72
2023/09/16 11:39:33;;;;;;;;;;;22.90;62.00;;;;;;5095543;28;19915;-69
2023/09/16 11:41:59;;;;;;;;;;;22.80;62.30;;;;;;5095848;28;19908;-69
2023/09/16 11:44:28;;;;;;;;;;;22.80;62.80;;;;;;5095297;28;19908;-69
2023/09/16 11:46:55;;;;;;;;;;;22.70;63.00;;;;;;5095434;28;19920;-70
2023/09/16 11:49:21;;;;;;;;;;;22.60;63.70;;;;;;5095153;28;19913;-69
2023/09/16 11:51:51;;;;;;;;;;;22.50;63.90;;;;;;5095463;28;19914;-73
2023/09/16 11:54:18;;;;;;;;;;;22.50;64.10;;;;;;5094890;28;19916;-70
2023/09/16 11:56:45;;;;;;;;;;;22.40;63.60;;;;;;5095148;28;19933;-70
2023/09/16 11:59:11;;;;;;;;;;;22.40;64.30;;;;;;5092230;28;19912;-71
2023/09/16 12:01:40;;;;;;;;;;;22.30;64.70;;;;;;5094785;28;19912;-75
2023/09/16 12:04:08;;;;;;;;;;;22.30;65.00;;;;;;5090983;28;20341;-69
2023/09/16 12:06:35;;;;;;;;;;;22.20;65.10;;;;;;5094668;28;19944;-71
2023/09/16 12:09:03;;;;;;;;;;;22.20;65.20;;;;;;5082020;28;19912;-70
2023/09/16 12:11:31;;;;;;;;;;;22.10;64.60;;;;;;5094565;28;19908;-71
2023/09/16 12:14:00;;;;;;;;;;;22.20;65.10;;;;;;5093772;28;19999;-71
2023/09/16 12:16:27;;;;;;;;;;;22.10;65.00;;;;;;5091371;28;19924;-73
2023/09/16 12:18:53;;;;;;;;;;;22.00;65.60;;;;;;5090964;28;20367;-69
2023/09/16 12:21:21;;;;;;;;;;;22.00;66.20;;;;;;5077359;28;19920;-72
2023/09/16 12:23:51;;;;;;;;;;;22.00;66.40;;;;;;5074270;28;19909;-71
2023/09/16 12:26:18;;;;;;;;;;;21.90;66.80;;;;;;5073069;28;20284;-70
2023/09/16 12:28:45;;;;;;;;;;;21.90;66.80;;;;;;5074380;28;19920;-75
2023/09/16 12:31:11;;;;;;;;;;;21.90;66.50;;;;;;5077743;28;19912;-71
2023/09/16 12:33:42;;;;;;;;;;;21.90;66.10;;;;;;5078958;28;20345;-78
2023/09/16 12:36:14;;;;;;;;;;;21.90;66.50;;;;;;5094407;28;19923;-70
2023/09/16 12:38:40;;;;;;;;;;;21.80;66.40;;;;;;5082345;28;19913;-71
2023/09/16 12:41:08;;;;;;;;;;;21.80;66.80;;;;;;5083897;28;19958;-70
2023/09/16 12:43:35;;;;;;;;;;;21.80;65.80;;;;;;5073941;28;20626;-71
2023/09/16 12:46:03;;;;;;;;;;;21.80;66.10;;;;;;5074362;28;20010;-70
2023/09/16 12:48:33;;;;;;;;;;;21.80;66.10;;;;;;5073790;28;19921;-70
2023/09/16 12:51:00;;;;;;;;;;;21.80;64.70;;;;;;5074124;28;19908;-77
2023/09/16 12:53:28;;;;;;;;;;;21.80;65.80;;;;;;5076628;28;19951;-69
2023/09/16 12:55:54;;;;;;;;;;;21.90;65.60;;;;;;5094139;28;19916;-71
2023/09/16 12:58:24;;;;;;;;;;;21.80;64.90;;;;;;5086046;28;19944;-71
2023/09/16 13:00:51;;;;;;;;;;;21.80;64.90;;;;;;5073866;28;19913;-70
2023/09/16 13:03:21;;;;;;;;;;;21.80;65.80;;;;;;5072718;28;19916;-70
2023/09/16 13:05:52;;;;;;;;;;;21.70;66.10;;;;;;5074104;28;19913;-70
2023/09/16 13:08:24;;;;;;;;;;;21.80;66.80;;;;;;5073476;28;19912;-71
2023/09/16 13:10:54;;;;;;;;;;;21.60;67.10;;;;;;5073680;28;19915;-69
2023/09/16 13:13:22;;;;;;;;;;;21.40;67.50;;;;;;5073975;28;19916;-70
2023/09/16 13:15:49;;;;;;;;;;;21.30;67.10;;;;;;5073718;28;20011;-70
2023/09/16 13:18:16;;;;;;;;;;;21.20;67.90;;;;;;5074593;28;20001;-70
2023/09/16 13:20:43;;;;;;;;;;;21.10;68.30;;;;;;5073184;28;19917;-69
2023/09/16 13:23:27;;;;;;;;;;;21.00;68.90;;;;;;5073520;28;19920;-70
2023/09/16 13:25:55;;;;;;;;;;;21.00;69.00;;;;;;5073611;28;19914;-70
2023/09/16 13:28:23;;;;;;;;;;;20.90;68.80;;;;;;5073417;28;19916;-69
2023/09/16 13:30:51;;;;;;;;;;;20.80;69.20;;;;;;5072048;28;19913;-68
2023/09/16 13:33:17;;;;;;;;;;;20.80;69.70;;;;;;5073383;28;20282;-70
2023/09/16 13:35:44;;;;;;;;;;;20.80;70.30;;;;;;5073313;28;19923;-69
2023/09/16 13:38:12;;;;;;;;;;;20.70;70.30;;;;;;5072896;28;19908;-69
2023/09/16 13:40:39;;;;;;;;;;;20.70;70.40;;;;;;5073534;28;19955;-69
2023/09/16 13:43:06;;;;;;;;;;;20.60;70.30;;;;;;5082743;28;19908;-67
2023/09/16 13:45:34;;;;;;;;;;;20.60;70.30;;;;;;5093430;28;20006;-69
2023/09/16 13:48:16;;;;;;;;;;;20.60;69.70;;;;;;5092701;28;20422;-69
2023/09/16 13:50:44;;;;;;;;;;;20.60;67.30;;;;;;5092905;28;19953;-68
2023/09/16 13:53:11;;;;;;;;;;;20.60;66.00;;;;;;5093017;28;19909;-69
2023/09/16 13:55:39;;;;;;;;;;;20.80;65.10;;;;;;5092923;28;20002;-70
2023/09/16 13:58:06;;;;;;;;;;;20.90;64.20;;;;;;5092889;28;20292;-69
2023/09/16 14:00:32;;;;;;;;;;;21.00;63.50;;;;;;5093175;28;19908;-70
2023/09/16 14:02:59;;;;;;;;;;;21.20;63.20;;;;;;5093328;28;19948;-70
2023/09/16 14:05:27;;;;;;;;;;;21.30;62.90;;;;;;5092977;28;19908;-69
2023/09/16 14:07:54;;;;;;;;;;;21.40;62.30;;;;;;5092361;28;19916;-69
2023/09/16 14:10:24;;;;;;;;;;;21.50;62.00;;;;;;5093044;28;20003;-70
2023/09/16 14:12:55;;;;;;;;;;;21.50;61.90;;;;;;5093130;28;19908;-70
2023/09/16 14:15:22;;;;;;;;;;;21.60;61.50;;;;;;5093071;28;19921;-69
2023/09/16 14:17:50;;;;;;;;;;;21.60;61.40;;;;;;5091336;28;19908;-69
2023/09/16 14:20:17;;;;;;;;;;;21.70;61.20;;;;;;5072816;28;19938;-69